Time;durP1;ratioP1;P1;durP2;ratioP2;P2;SDS_P1;SDS_P2;PMS_P1;PMS_P2;Temp;Humidity;BMP_temperature;BMP_pressure;BME280_temperature;BME280_humidity;BME280_pressure;Samples;Min_cycle;Max_cycle;Signal;HPM_P1;HPM_P2
2022/12/18 00:01:26;;;;;;;1999.90;999.90;;;-7.60;99.90;;;;;;5038734;28;20496;-67
2022/12/18 00:03:54;;;;;;;1999.90;999.90;;;-7.60;99.90;;;;;;5039382;28;20469;-64
2022/12/18 00:06:22;;;;;;;1999.90;999.90;;;-7.60;99.90;;;;;;5047945;28;20495;-65
2022/12/18 00:08:51;;;;;;;1999.90;999.90;;;-7.60;99.90;;;;;;5047414;28;20493;-65
2022/12/18 00:11:20;;;;;;;1999.90;999.90;;;-7.70;99.90;;;;;;5044197;28;21251;-66
2022/12/18 00:13:48;;;;;;;1999.90;999.90;;;-7.70;99.90;;;;;;5064761;28;20467;-66
2022/12/18 00:16:20;;;;;;;1999.90;999.90;;;-7.60;99.90;;;;;;5070526;28;20459;-70
2022/12/18 00:18:47;;;;;;;1999.90;999.90;;;-7.80;99.90;;;;;;5072114;28;20543;-66
2022/12/18 00:21:15;;;;;;;1999.90;999.90;;;-7.70;99.90;;;;;;5071972;28;20462;-66
2022/12/18 00:23:43;;;;;;;1999.90;999.90;;;-7.90;99.90;;;;;;5065350;28;20451;-68
2022/12/18 00:26:14;;;;;;;1999.90;999.90;;;-7.80;99.90;;;;;;5041941;28;20207;-67
2022/12/18 00:28:41;;;;;;;1999.90;999.90;;;-7.70;99.90;;;;;;5051767;28;20492;-65
2022/12/18 00:31:10;;;;;;;1999.90;999.90;;;-7.60;99.90;;;;;;5048279;28;20528;-65
2022/12/18 00:33:38;;;;;;;1999.90;999.90;;;-7.60;99.90;;;;;;5049477;28;20467;-65
2022/12/18 00:36:06;;;;;;;1999.90;999.90;;;-7.60;99.90;;;;;;5039292;28;20467;-64
2022/12/18 00:38:34;;;;;;;1999.90;999.90;;;-7.60;99.90;;;;;;5037631;28;20497;-65
2022/12/18 00:41:01;;;;;;;1999.90;999.90;;;-7.70;99.90;;;;;;5048314;28;20204;-65
2022/12/18 00:43:28;;;;;;;1999.90;999.90;;;-7.70;99.90;;;;;;5049116;28;20466;-65
2022/12/18 00:45:55;;;;;;;1999.90;999.90;;;-7.80;99.90;;;;;;5047460;28;20458;-65
2022/12/18 00:48:22;;;;;;;1999.90;999.90;;;-7.80;99.90;;;;;;5039339;28;20222;-63
2022/12/18 00:50:50;;;;;;;1999.90;999.90;;;-7.90;99.90;;;;;;5039185;28;20458;-65
2022/12/18 00:53:17;;;;;;;1999.90;999.90;;;-8.00;99.90;;;;;;5049315;28;20469;-66
2022/12/18 00:55:45;;;;;;;1999.90;999.90;;;-8.10;99.90;;;;;;5047469;28;21302;-64
2022/12/18 00:58:13;;;;;;;1999.90;999.90;;;-8.10;99.90;;;;;;5047746;28;21024;-66
2022/12/18 01:00:42;;;;;;;1999.90;999.90;;;-8.10;99.90;;;;;;5038553;28;20973;-65
2022/12/18 01:03:10;;;;;;;1999.90;999.90;;;-8.00;99.90;;;;;;5045523;28;20207;-65
2022/12/18 01:05:40;;;;;;;1999.90;999.90;;;-8.00;99.90;;;;;;5046266;28;20458;-65
2022/12/18 01:08:07;;;;;;;1999.90;999.90;;;-7.90;99.90;;;;;;5046270;28;20231;-64
2022/12/18 01:10:34;;;;;;;1999.90;999.90;;;-7.90;99.90;;;;;;5047121;28;20207;-65
2022/12/18 01:13:00;;;;;;;1999.90;999.90;;;-7.80;99.90;;;;;;5042957;28;20195;-65
2022/12/18 01:15:27;;;;;;;1999.90;999.90;;;-7.70;99.90;;;;;;5046158;28;20469;-66
2022/12/18 01:17:55;;;;;;;1999.90;999.90;;;-7.70;99.90;;;;;;5046393;28;20489;-65
2022/12/18 01:20:22;;;;;;;1999.90;999.90;;;-7.70;99.90;;;;;;5047241;28;20462;-65
2022/12/18 01:22:49;;;;;;;1999.90;999.90;;;-7.70;99.90;;;;;;5047566;28;20200;-65
2022/12/18 01:25:15;;;;;;;1999.90;999.90;;;-7.70;99.90;;;;;;5041933;28;20458;-65
2022/12/18 01:27:42;;;;;;;1999.90;999.90;;;-7.80;99.90;;;;;;5048035;28;20934;-64
2022/12/18 01:30:10;;;;;;;1999.90;999.90;;;-7.90;99.90;;;;;;5047503;28;20470;-65
2022/12/18 01:32:37;;;;;;;1999.90;999.90;;;-8.10;99.90;;;;;;5050520;28;20477;-66
2022/12/18 01:35:06;;;;;;;1999.90;999.90;;;-8.20;99.90;;;;;;5047803;28;21027;-64
2022/12/18 01:37:33;;;;;;;1999.90;999.90;;;-8.20;99.90;;;;;;5042461;28;20470;-64
2022/12/18 01:40:00;;;;;;;1999.90;999.90;;;-8.10;99.90;;;;;;5048471;28;20828;-65
2022/12/18 01:42:26;;;;;;;1999.90;999.90;;;-8.00;99.90;;;;;;5048881;28;21006;-66
2022/12/18 01:45:02;;;;;;;1999.90;999.90;;;-8.10;99.90;;;;;;5048809;28;20196;-66
2022/12/18 01:47:36;;;;;;;1999.90;999.90;;;-8.00;99.90;;;;;;5048153;28;20203;-67
2022/12/18 01:50:08;;;;;;;1999.90;999.90;;;-8.00;99.90;;;;;;5059431;28;20215;-66
2022/12/18 01:52:36;;;;;;;1999.90;999.90;;;-7.90;99.90;;;;;;5049858;28;20722;-64
2022/12/18 01:55:06;;;;;;;1999.90;999.90;;;-7.90;99.90;;;;;;5047248;28;20208;-66
2022/12/18 01:57:33;;;;;;;1999.90;999.90;;;-8.10;99.90;;;;;;5049911;28;20200;-66
2022/12/18 02:00:04;;;;;;;1999.90;999.90;;;-8.10;99.90;;;;;;5045592;28;20482;-66
2022/12/18 02:02:32;;;;;;;1999.90;999.90;;;-8.20;99.90;;;;;;5046087;28;20481;-67
2022/12/18 02:04:59;;;;;;;1999.90;999.90;;;-8.10;99.90;;;;;;5046292;28;20204;-67
2022/12/18 02:07:38;;;;;;;1999.90;999.90;;;-8.20;99.90;;;;;;5049929;28;20473;-67
2022/12/18 02:10:11;;;;;;;1999.90;999.90;;;-8.30;99.90;;;;;;5050021;28;20454;-67
2022/12/18 02:12:44;;;;;;;1999.90;999.90;;;-8.30;99.90;;;;;;5037474;28;20466;-67
2022/12/18 02:15:17;;;;;;;1999.90;999.90;;;-8.20;99.90;;;;;;5047252;28;20832;-66
2022/12/18 02:17:48;;;;;;;1999.90;999.90;;;-8.10;99.90;;;;;;5052395;28;20465;-65
2022/12/18 02:20:20;;;;;;;1999.90;999.90;;;-8.10;99.90;;;;;;5053444;28;20712;-66
2022/12/18 02:23:02;;;;;;;1999.90;999.90;;;-8.10;99.90;;;;;;5053843;28;20461;-65
2022/12/18 02:25:44;;;;;;;1999.90;999.90;;;-8.10;99.90;;;;;;5049500;28;20981;-65
2022/12/18 02:28:16;;;;;;;1999.90;999.90;;;-8.00;99.90;;;;;;5052331;28;20560;-65
2022/12/18 02:30:45;;;;;;;1999.90;999.90;;;-8.10;99.90;;;;;;5053958;28;20199;-66
2022/12/18 02:33:13;;;;;;;1999.90;999.90;;;-8.10;99.90;;;;;;5053671;28;20553;-65
2022/12/18 02:35:42;;;;;;;1999.90;999.90;;;-8.20;99.90;;;;;;5050255;28;21012;-66
2022/12/18 02:38:10;;;;;;;1999.90;999.90;;;-8.20;99.90;;;;;;5049159;28;20231;-65
2022/12/18 02:40:37;;;;;;;1999.90;999.90;;;-8.20;99.90;;;;;;5047535;28;21053;-65
2022/12/18 02:43:08;;;;;;;1999.90;999.90;;;-8.30;99.90;;;;;;5070214;28;20200;-64
2022/12/18 02:45:36;;;;;;;1999.90;999.90;;;-8.30;99.90;;;;;;5050988;28;20204;-65
2022/12/18 02:48:03;;;;;;;1999.90;999.90;;;-8.30;99.90;;;;;;5050973;28;20892;-64
2022/12/18 02:50:36;;;;;;;1999.90;999.90;;;-8.30;99.90;;;;;;5052046;28;20199;-65
2022/12/18 02:53:11;;;;;;;1999.90;999.90;;;-8.30;99.90;;;;;;5053287;28;20237;-65
2022/12/18 02:55:53;;;;;;;1999.90;999.90;;;-8.20;99.90;;;;;;5045466;28;20453;-65
2022/12/18 02:58:27;;;;;;;1999.90;999.90;;;-8.40;99.90;;;;;;5051737;28;20239;-66
2022/12/18 03:01:00;;;;;;;1999.90;999.90;;;-8.50;99.90;;;;;;5050895;28;20196;-65
2022/12/18 03:03:32;;;;;;;1999.90;999.90;;;-8.60;99.90;;;;;;5049749;28;20196;-65
2022/12/18 03:06:05;;;;;;;1999.90;999.90;;;-8.50;99.90;;;;;;5050465;28;20954;-65
2022/12/18 03:08:37;;;;;;;1999.90;999.90;;;-8.50;99.90;;;;;;5050660;28;20219;-65
2022/12/18 03:11:06;;;;;;;1999.90;999.90;;;-8.50;99.90;;;;;;5051394;28;20660;-64
2022/12/18 03:13:37;;;;;;;1999.90;999.90;;;-8.40;99.90;;;;;;5050522;28;20223;-65
2022/12/18 03:16:09;;;;;;;1999.90;999.90;;;-8.40;99.90;;;;;;5050522;28;20462;-66
2022/12/18 03:18:39;;;;;;;1999.90;999.90;;;-8.40;99.90;;;;;;5051355;28;20234;-67
2022/12/18 03:21:08;;;;;;;1999.90;999.90;;;-8.40;99.90;;;;;;5050886;28;20679;-65
2022/12/18 03:23:40;;;;;;;1999.90;999.90;;;-8.40;99.90;;;;;;5049841;28;20462;-64
2022/12/18 03:26:11;;;;;;;1999.90;999.90;;;-8.40;99.90;;;;;;5048867;28;20473;-65
2022/12/18 03:28:42;;;;;;;1999.90;999.90;;;-8.30;99.90;;;;;;5051350;28;20219;-67
2022/12/18 03:31:13;;;;;;;1999.90;999.90;;;-8.40;99.90;;;;;;5050343;28;20997;-66
2022/12/18 03:36:12;;;;;;;1999.90;999.90;;;-8.40;99.90;;;;;;5041500;28;20466;-70
2022/12/18 03:38:39;;;;;;;1999.90;999.90;;;-8.40;99.90;;;;;;5045942;28;20235;-71
2022/12/18 03:41:12;;;;;;;1999.90;999.90;;;-8.40;99.90;;;;;;5055434;28;20204;-68
2022/12/18 03:43:47;;;;;;;1999.90;999.90;;;-8.50;99.90;;;;;;5058892;28;20208;-68
2022/12/18 03:46:25;;;;;;;1999.90;999.90;;;-8.50;99.90;;;;;;5047752;28;20577;-68
2022/12/18 03:48:56;;;;;;;1999.90;999.90;;;-8.40;99.90;;;;;;5052740;28;20463;-73
2022/12/18 03:51:28;;;;;;;1999.90;999.90;;;-8.30;99.90;;;;;;5050754;28;20192;-68
2022/12/18 03:53:59;;;;;;;1999.90;999.90;;;-8.40;99.90;;;;;;5055916;28;20493;-68
2022/12/18 03:56:30;;;;;;;1999.90;999.90;;;-8.40;99.90;;;;;;5044174;28;20214;-69
2022/12/18 03:59:00;;;;;;;1999.90;999.90;;;-8.30;99.90;;;;;;5049621;28;20234;-68
2022/12/18 04:01:32;;;;;;;1999.90;999.90;;;-8.40;99.90;;;;;;5052595;28;20462;-69
2022/12/18 04:04:01;;;;;;;1999.90;999.90;;;-8.50;99.90;;;;;;5049916;28;20224;-71
2022/12/18 04:06:30;;;;;;;1999.90;999.90;;;-8.50;99.90;;;;;;5051160;28;20207;-68
2022/12/18 04:08:58;;;;;;;1999.90;999.90;;;-8.50;99.90;;;;;;5055791;28;20200;-67
2022/12/18 04:11:25;;;;;;;1999.90;999.90;;;-8.50;99.90;;;;;;5056610;28;20464;-69
2022/12/18 04:13:55;;;;;;;1999.90;999.90;;;-8.50;99.90;;;;;;5057952;28;20195;-69
2022/12/18 04:16:22;;;;;;;1999.90;999.90;;;-8.40;99.90;;;;;;5053017;28;20211;-68
2022/12/18 04:18:50;;;;;;;1999.90;999.90;;;-8.40;99.90;;;;;;5050316;28;20231;-67
2022/12/18 04:21:17;;;;;;;1999.90;999.90;;;-8.40;99.90;;;;;;5055758;28;20211;-66
2022/12/18 04:23:44;;;;;;;1999.90;999.90;;;-8.50;99.90;;;;;;5053285;28;20199;-69
2022/12/18 04:26:11;;;;;;;1999.90;999.90;;;-8.50;99.90;;;;;;5049062;28;20581;-68
2022/12/18 04:28:38;;;;;;;1999.90;999.90;;;-8.60;99.90;;;;;;5059463;28;20204;-69
2022/12/18 04:31:05;;;;;;;1999.90;999.90;;;-8.50;99.90;;;;;;5049335;28;20204;-67
2022/12/18 04:33:31;;;;;;;1999.90;999.90;;;-8.50;99.90;;;;;;5055483;28;20202;-70
2022/12/18 04:35:59;;;;;;;1999.90;999.90;;;-8.60;99.90;;;;;;5047418;28;20231;-67
2022/12/18 04:38:26;;;;;;;1999.90;999.90;;;-8.60;99.90;;;;;;5055185;28;20216;-68
2022/12/18 04:40:53;;;;;;;1999.90;999.90;;;-8.60;99.90;;;;;;5049230;28;20220;-70
2022/12/18 04:43:20;;;;;;;1999.90;999.90;;;-8.70;99.90;;;;;;5054867;28;20556;-69
2022/12/18 04:45:47;;;;;;;1999.90;999.90;;;-8.80;99.90;;;;;;5049107;28;20380;-69
2022/12/18 04:48:13;;;;;;;1999.90;999.90;;;-8.80;99.90;;;;;;5050001;28;20227;-70
2022/12/18 04:50:40;;;;;;;1999.90;999.90;;;-8.80;99.90;;;;;;5050239;28;20191;-70
2022/12/18 04:53:08;;;;;;;1999.90;999.90;;;-8.70;99.90;;;;;;5049389;28;20208;-68
2022/12/18 04:55:35;;;;;;;1999.90;999.90;;;-8.70;99.90;;;;;;5052831;28;20242;-69
2022/12/18 04:58:02;;;;;;;1999.90;999.90;;;-8.70;99.90;;;;;;5049420;28;20211;-70
2022/12/18 05:00:29;;;;;;;1999.90;999.90;;;-8.70;99.90;;;;;;5046756;28;20220;-68
2022/12/18 05:02:55;;;;;;;1999.90;999.90;;;-8.70;99.90;;;;;;5049723;28;20600;-70
2022/12/18 05:05:22;;;;;;;1999.90;999.90;;;-8.60;99.90;;;;;;5046735;28;20904;-68
2022/12/18 05:07:49;;;;;;;1999.90;999.90;;;-8.70;99.90;;;;;;5048811;28;20207;-70
2022/12/18 05:10:17;;;;;;;1999.90;999.90;;;-8.70;99.90;;;;;;5054642;28;20227;-72
2022/12/18 05:15:38;;;;;;;1999.90;999.90;;;-8.80;99.90;;;;;;5075786;27;20585;-69
2022/12/18 05:18:05;;;;;;;1999.90;999.90;;;-8.80;99.90;;;;;;5071197;28;20195;-68
2022/12/18 05:20:32;;;;;;;1999.90;999.90;;;-8.80;99.90;;;;;;5072045;28;20199;-69
2022/12/18 05:22:59;;;;;;;1999.90;999.90;;;-8.90;99.90;;;;;;5070216;28;20202;-68
2022/12/18 05:25:26;;;;;;;1999.90;999.90;;;-9.10;99.90;;;;;;5070167;28;20223;-68
2022/12/18 05:27:53;;;;;;;1999.90;999.90;;;-9.20;99.90;;;;;;5070273;28;20241;-68
2022/12/18 05:30:19;;;;;;;1999.90;999.90;;;-9.40;99.90;;;;;;5070345;28;20210;-70
2022/12/18 05:32:47;;;;;;;1999.90;999.90;;;-9.40;99.90;;;;;;5070189;28;20210;-69
2022/12/18 05:35:14;;;;;;;1999.90;999.90;;;-9.40;99.90;;;;;;5068379;28;20227;-69
2022/12/18 05:37:41;;;;;;;1999.90;999.90;;;-9.30;99.90;;;;;;5071737;28;20208;-68
2022/12/18 05:40:09;;;;;;;1999.90;999.90;;;-9.30;99.90;;;;;;5068745;28;20668;-68
2022/12/18 05:42:36;;;;;;;1999.90;999.90;;;-9.20;99.90;;;;;;5068888;28;20200;-69
2022/12/18 05:45:03;;;;;;;1999.90;999.90;;;-9.20;99.90;;;;;;5069020;28;20222;-69
2022/12/18 05:47:30;;;;;;;1999.90;999.90;;;-8.90;99.90;;;;;;5071781;28;20209;-69
2022/12/18 05:49:58;;;;;;;1999.90;999.90;;;-9.20;99.90;;;;;;5072217;28;20214;-70
2022/12/18 05:52:25;;;;;;;1999.90;999.90;;;-9.20;99.90;;;;;;5071030;28;20199;-69
2022/12/18 05:54:52;;;;;;;1999.90;999.90;;;-9.10;99.90;;;;;;5068982;28;20227;-69
2022/12/18 05:57:18;;;;;;;1999.90;999.90;;;-9.10;99.90;;;;;;5073111;28;20199;-69
2022/12/18 05:59:45;;;;;;;1999.90;999.90;;;-9.30;99.90;;;;;;5067824;28;20305;-71
2022/12/18 06:02:12;;;;;;;1999.90;999.90;;;-9.30;99.90;;;;;;5064791;28;20203;-68
2022/12/18 06:04:39;;;;;;;1999.90;999.90;;;-9.40;99.90;;;;;;5067357;28;20726;-68
2022/12/18 06:07:07;;;;;;;1999.90;999.90;;;-9.40;99.90;;;;;;5069296;28;20267;-70
2022/12/18 06:09:33;;;;;;;1999.90;999.90;;;-9.40;99.90;;;;;;5070081;28;20222;-69
2022/12/18 06:12:00;;;;;;;1999.90;999.90;;;-9.40;99.90;;;;;;5069993;28;20663;-68
2022/12/18 06:14:27;;;;;;;1999.90;999.90;;;-9.50;99.90;;;;;;5067947;28;20238;-65
2022/12/18 06:16:54;;;;;;;1999.90;999.90;;;-9.40;99.90;;;;;;5068405;28;20203;-67
2022/12/18 06:19:21;;;;;;;1999.90;999.90;;;-9.50;99.90;;;;;;5067520;28;20298;-69
2022/12/18 06:21:49;;;;;;;1999.90;999.90;;;-9.50;99.90;;;;;;5069424;28;20214;-69
2022/12/18 06:24:17;;;;;;;1999.90;999.90;;;-9.50;99.90;;;;;;5068024;28;20642;-69
2022/12/18 06:26:43;;;;;;;1999.90;999.90;;;-9.50;99.90;;;;;;5061475;28;20664;-69
2022/12/18 06:29:10;;;;;;;1999.90;999.90;;;-9.40;99.90;;;;;;5056082;28;20590;-66
2022/12/18 06:31:37;;;;;;;1999.90;999.90;;;-9.40;99.90;;;;;;5055817;28;20584;-69
2022/12/18 06:34:05;;;;;;;1999.90;999.90;;;-9.40;99.90;;;;;;5053883;28;20232;-71
2022/12/18 06:36:33;;;;;;;1999.90;999.90;;;-9.30;99.90;;;;;;5056501;28;20222;-70
2022/12/18 06:39:00;;;;;;;1999.90;999.90;;;-9.30;99.90;;;;;;5056916;28;20199;-69
2022/12/18 06:41:28;;;;;;;1999.90;999.90;;;-9.20;99.90;;;;;;5056811;28;20223;-70
2022/12/18 06:43:55;;;;;;;1999.90;999.90;;;-9.20;99.90;;;;;;5055968;28;20210;-68
2022/12/18 06:46:21;;;;;;;1999.90;999.90;;;-9.30;99.90;;;;;;5053966;28;20712;-65
2022/12/18 06:48:50;;;;;;;1999.90;999.90;;;-9.30;99.90;;;;;;5055549;28;20223;-68
2022/12/18 06:51:19;;;;;;;1999.90;999.90;;;-9.30;99.90;;;;;;5054370;28;20915;-67
2022/12/18 06:53:46;;;;;;;1999.90;999.90;;;-9.30;99.90;;;;;;5055927;28;20574;-66
2022/12/18 06:56:12;;;;;;;1999.90;999.90;;;-9.20;99.90;;;;;;5055389;28;20207;-69
2022/12/18 06:58:40;;;;;;;1999.90;999.90;;;-9.20;99.90;;;;;;5055805;28;20203;-67
2022/12/18 07:01:10;;;;;;;1999.90;999.90;;;-9.20;99.90;;;;;;5054760;28;20192;-65
2022/12/18 07:03:38;;;;;;;1999.90;999.90;;;-9.20;99.90;;;;;;5054931;28;20230;-66
2022/12/18 07:06:05;;;;;;;1999.90;999.90;;;-9.20;99.90;;;;;;5056499;28;20200;-70
2022/12/18 07:08:33;;;;;;;1999.90;999.90;;;-9.20;99.90;;;;;;5050858;28;20661;-71
2022/12/18 07:11:00;;;;;;;1999.90;999.90;;;-9.10;99.90;;;;;;5053155;28;20200;-67
2022/12/18 07:13:26;;;;;;;1999.90;999.90;;;-9.10;99.90;;;;;;5055211;28;20215;-67
2022/12/18 07:15:55;;;;;;;1999.90;999.90;;;-9.10;99.90;;;;;;5057599;28;20235;-66
2022/12/18 07:18:21;;;;;;;1999.90;999.90;;;-9.00;99.90;;;;;;5057225;28;20234;-67
2022/12/18 07:20:48;;;;;;;1999.90;999.90;;;-9.10;99.90;;;;;;5058221;28;20262;-68
2022/12/18 07:23:15;;;;;;;1999.90;999.90;;;-9.40;99.90;;;;;;5054661;28;20196;-67
2022/12/18 07:25:42;;;;;;;1999.90;999.90;;;-9.40;99.90;;;;;;5053466;28;20331;-74
2022/12/18 07:28:08;;;;;;;1999.90;999.90;;;-9.40;99.90;;;;;;5055293;28;20207;-68
2022/12/18 07:30:38;;;;;;;1999.90;999.90;;;-9.40;99.90;;;;;;5057386;28;20214;-68
2022/12/18 07:33:06;;;;;;;1999.90;999.90;;;-9.40;99.90;;;;;;5057906;28;20579;-68
2022/12/18 07:35:33;;;;;;;1999.90;999.90;;;-9.40;99.90;;;;;;5053900;28;20629;-66
2022/12/18 07:38:03;;;;;;;1999.90;999.90;;;-9.50;99.90;;;;;;5056352;28;20200;-68
2022/12/18 07:40:30;;;;;;;1999.90;999.90;;;-9.50;99.90;;;;;;5053016;28;20214;-69
2022/12/18 07:42:57;;;;;;;1999.90;999.90;;;-9.60;99.90;;;;;;5053256;28;20204;-68
2022/12/18 07:45:24;;;;;;;1999.90;999.90;;;-9.50;99.90;;;;;;5058823;28;20227;-68
2022/12/18 07:47:51;;;;;;;1999.90;999.90;;;-9.50;99.90;;;;;;5052434;28;20208;-67
2022/12/18 07:50:19;;;;;;;1999.90;999.90;;;-9.40;99.90;;;;;;5053987;28;20215;-69
2022/12/18 07:52:46;;;;;;;1999.90;999.90;;;-9.30;99.90;;;;;;5052919;28;20195;-68
2022/12/18 07:55:13;;;;;;;1999.90;999.90;;;-9.30;99.90;;;;;;5052259;28;20223;-68
2022/12/18 07:57:40;;;;;;;1999.90;999.90;;;-9.20;99.90;;;;;;5054859;28;20489;-68
2022/12/18 08:00:08;;;;;;;1999.90;999.90;;;-9.20;99.90;;;;;;5053178;28;20203;-67
2022/12/18 08:02:35;;;;;;;1999.90;999.90;;;-9.00;99.90;;;;;;5054122;28;20201;-67
2022/12/18 08:05:02;;;;;;;1999.90;999.90;;;-9.10;99.90;;;;;;5051649;28;20224;-68
2022/12/18 08:07:30;;;;;;;1999.90;999.90;;;-9.10;99.90;;;;;;5053722;28;20222;-67
2022/12/18 08:09:57;;;;;;;1999.90;999.90;;;-9.00;99.90;;;;;;5058378;28;20203;-68
2022/12/18 08:12:24;;;;;;;1999.90;999.90;;;-9.00;99.90;;;;;;5056042;28;20455;-67
2022/12/18 08:14:51;;;;;;;1999.90;999.90;;;-8.90;99.90;;;;;;5055832;28;20227;-67
2022/12/18 08:17:19;;;;;;;1999.90;999.90;;;-8.80;99.90;;;;;;5054363;28;20719;-67
2022/12/18 08:19:46;;;;;;;1999.90;999.90;;;-8.70;99.90;;;;;;5054609;28;20723;-67
2022/12/18 08:22:14;;;;;;;1999.90;999.90;;;-8.60;99.90;;;;;;5053410;28;20280;-68
2022/12/18 08:24:42;;;;;;;1999.90;999.90;;;-8.60;99.90;;;;;;5055862;28;21266;-68
2022/12/18 08:27:09;;;;;;;1999.90;999.90;;;-8.50;99.90;;;;;;5053518;28;20482;-67
2022/12/18 08:29:36;;;;;;;1999.90;999.90;;;-8.30;99.90;;;;;;5052854;28;20208;-68
2022/12/18 08:32:02;;;;;;;1999.90;999.90;;;-8.20;99.90;;;;;;5053331;28;20214;-69
2022/12/18 08:34:29;;;;;;;1999.90;999.90;;;-8.10;99.90;;;;;;5048360;28;20482;-69
2022/12/18 08:36:56;;;;;;;1999.90;999.90;;;-7.90;99.90;;;;;;5053606;28;20203;-69
2022/12/18 08:39:23;;;;;;;1999.90;999.90;;;-7.70;99.90;;;;;;5054763;28;20461;-68
2022/12/18 08:44:41;;;;;;;1999.90;999.90;;;-7.40;99.90;;;;;;5050524;28;20486;-69
2022/12/18 08:47:08;;;;;;;1999.90;999.90;;;-7.30;99.90;;;;;;5048808;28;20512;-66
2022/12/18 08:49:35;;;;;;;1999.90;999.90;;;-7.00;99.90;;;;;;5050598;28;20462;-68
2022/12/18 08:52:03;;;;;;;1999.90;999.90;;;-6.90;99.90;;;;;;5051403;28;20950;-68
2022/12/18 08:54:30;;;;;;;1999.90;999.90;;;-6.80;99.90;;;;;;5050560;28;21066;-68
2022/12/18 08:56:58;;;;;;;1999.90;999.90;;;-6.50;99.90;;;;;;5051667;28;20971;-70
2022/12/18 08:59:25;;;;;;;1999.90;999.90;;;-6.30;99.90;;;;;;5050629;28;20466;-69
2022/12/18 09:01:55;;;;;;;1999.90;999.90;;;-6.30;99.90;;;;;;5051423;28;20469;-68
2022/12/18 09:04:21;;;;;;;1999.90;999.90;;;-6.10;99.90;;;;;;5053425;28;21014;-68
2022/12/18 09:06:48;;;;;;;1999.90;999.90;;;-6.20;99.90;;;;;;5050913;28;20462;-69
2022/12/18 09:09:15;;;;;;;1999.90;999.90;;;-6.00;99.90;;;;;;5051523;28;20470;-69
2022/12/18 09:11:42;;;;;;;1999.90;999.90;;;-6.30;99.90;;;;;;5051114;28;20485;-68
2022/12/18 09:14:11;;;;;;;1999.90;999.90;;;-6.30;99.90;;;;;;5051005;28;20889;-69
2022/12/18 09:16:38;;;;;;;1999.90;999.90;;;-6.00;99.90;;;;;;5051944;28;20486;-69
2022/12/18 09:19:06;;;;;;;1999.90;999.90;;;-5.70;99.90;;;;;;5053642;28;20469;-69
2022/12/18 09:21:34;;;;;;;1999.90;999.90;;;-5.90;99.90;;;;;;5052921;28;20520;-69
2022/12/18 09:24:01;;;;;;;1999.90;999.90;;;-5.80;99.90;;;;;;5050681;28;20489;-69
2022/12/18 09:26:28;;;;;;;1999.90;999.90;;;-5.70;99.90;;;;;;5049736;28;20462;-71
2022/12/18 09:28:55;;;;;;;1999.90;999.90;;;-5.80;99.90;;;;;;5052359;28;20458;-69
2022/12/18 09:31:24;;;;;;;1999.90;999.90;;;-5.60;99.90;;;;;;5050949;28;20887;-70
2022/12/18 09:33:51;;;;;;;1999.90;999.90;;;-5.70;99.90;;;;;;5050940;28;20462;-68
2022/12/18 09:36:19;;;;;;;1999.90;999.90;;;-5.70;99.90;;;;;;5064018;22;20481;-64
2022/12/18 09:38:46;;;;;;;1999.90;999.90;;;-5.70;99.90;;;;;;5025285;28;20475;-67
2022/12/18 09:41:31;;;;;;;1999.90;999.90;;;-5.40;99.90;;;;;;5027760;28;20455;-65
2022/12/18 09:44:02;;;;;;;1999.90;999.90;;;-5.20;99.90;;;;;;5026911;28;20454;-66
2022/12/18 09:46:35;;;;;;;1999.90;999.90;;;-4.90;99.90;;;;;;5022818;28;20484;-65
2022/12/18 09:49:06;;;;;;;1999.90;999.90;;;-4.70;99.90;;;;;;5030012;28;20493;-66
2022/12/18 09:51:38;;;;;;;1999.90;999.90;;;-4.60;99.90;;;;;;5031320;28;20447;-66
2022/12/18 09:54:07;;;;;;;1999.90;999.90;;;-4.50;99.90;;;;;;5030426;28;20459;-65
2022/12/18 09:56:38;;;;;;;1999.90;999.90;;;-4.60;99.90;;;;;;5027267;28;20491;-66
2022/12/18 09:59:06;;;;;;;1999.90;999.90;;;-4.50;99.90;;;;;;5025320;28;20467;-65
2022/12/18 10:01:34;;;;;;;1999.90;999.90;;;-4.50;99.90;;;;;;5029863;28;20463;-66
2022/12/18 10:04:01;;;;;;;1999.90;999.90;;;-4.50;99.90;;;;;;5031589;28;20464;-66
2022/12/18 10:06:32;;;;;;;1999.90;999.90;;;-4.30;99.90;;;;;;5040975;28;20474;-68
2022/12/18 10:09:05;;;;;;;1999.90;999.90;;;-4.50;99.90;;;;;;5033823;28;20451;-65
2022/12/18 10:11:41;;;;;;;1999.90;999.90;;;-4.50;99.90;;;;;;5029200;28;20458;-67
2022/12/18 10:14:16;;;;;;;1999.90;999.90;;;-4.40;99.90;;;;;;5029897;28;20978;-67
2022/12/18 10:16:54;;;;;;;1999.90;999.90;;;-4.00;99.90;;;;;;5030270;28;20495;-66
2022/12/18 10:19:36;;;;;;;1999.90;999.90;;;-4.00;99.90;;;;;;5032502;28;20493;-67
2022/12/18 10:22:13;;;;;;;1999.90;999.90;;;-3.90;99.90;;;;;;5030835;28;20846;-66
2022/12/18 10:24:45;;;;;;;1999.90;999.90;;;-3.70;99.90;;;;;;5030241;28;20967;-67
2022/12/18 10:27:16;;;;;;;1999.90;999.90;;;-3.70;99.90;;;;;;5029592;28;20485;-66
2022/12/18 10:29:44;;;;;;;1999.90;999.90;;;-3.40;99.90;;;;;;5031259;28;20467;-67
2022/12/18 10:32:17;;;;;;;1999.90;999.90;;;-3.30;99.90;;;;;;5034638;28;20443;-65
2022/12/18 10:34:48;;;;;;;1999.90;999.90;;;-3.10;99.90;;;;;;5028168;28;20811;-67
2022/12/18 10:37:19;;;;;;;1999.90;999.90;;;-3.10;99.90;;;;;;5033042;28;20489;-67
2022/12/18 10:39:46;;;;;;;1999.90;999.90;;;-2.80;99.90;;;;;;5028379;28;20460;-67
2022/12/18 10:42:18;;;;;;;1999.90;999.90;;;-2.60;99.90;;;;;;5033134;28;20467;-65
2022/12/18 10:44:45;;;;;;;1999.90;999.90;;;-2.50;99.90;;;;;;5033199;28;20440;-66
2022/12/18 10:47:16;;;;;;;1999.90;999.90;;;-2.40;99.90;;;;;;5033068;28;20463;-68
2022/12/18 10:49:50;;;;;;;1999.90;999.90;;;-2.30;99.90;;;;;;5031290;28;20470;-68
2022/12/18 10:52:21;;;;;;;1999.90;999.90;;;-2.20;99.90;;;;;;5030768;28;20463;-69
2022/12/18 10:54:50;;;;;;;1999.90;999.90;;;-2.10;99.90;;;;;;5030405;28;20459;-67
2022/12/18 10:57:30;;;;;;;1999.90;999.90;;;-2.20;99.90;;;;;;5033361;28;20866;-69
2022/12/18 10:59:58;;;;;;;1999.90;999.90;;;-2.20;99.90;;;;;;5032768;28;20447;-69
2022/12/18 11:02:34;;;;;;;1999.90;999.90;;;-2.00;99.90;;;;;;5031592;28;20474;-66
2022/12/18 11:05:01;;;;;;;1999.90;999.90;;;-1.70;99.90;;;;;;5033613;28;20435;-67
2022/12/18 11:07:50;;;;;;;1999.90;999.90;;;-1.60;99.90;;;;;;5012776;28;20467;-67
2022/12/18 11:10:19;;;;;;;1999.90;999.90;;;-1.50;99.90;;;;;;5014128;28;20440;-67
2022/12/18 11:12:46;;;;;;;1999.90;999.90;;;-1.50;99.90;;;;;;5024234;28;20466;-67
2022/12/18 11:15:17;;;;;;;1999.90;999.90;;;-1.70;99.90;;;;;;5029421;28;20461;-67
2022/12/18 11:17:48;;;;;;;1999.90;999.90;;;-1.70;99.90;;;;;;5026851;28;20475;-66
2022/12/18 11:20:24;;;;;;;1999.90;999.90;;;-1.60;99.90;;;;;;5030292;28;20463;-68
2022/12/18 11:22:59;;;;;;;1999.90;999.90;;;-1.50;99.90;;;;;;5032490;28;20470;-67
2022/12/18 11:25:28;;;;;;;1999.90;999.90;;;-1.30;99.90;;;;;;5023422;28;20473;-67
2022/12/18 11:27:58;;;;;;;1999.90;999.90;;;-1.10;99.90;;;;;;5032434;28;20462;-67
2022/12/18 11:30:27;;;;;;;1999.90;999.90;;;-1.00;99.90;;;;;;5031389;28;20466;-67
2022/12/18 11:32:59;;;;;;;1999.90;999.90;;;-0.90;99.90;;;;;;5029208;28;20459;-68
2022/12/18 11:35:35;;;;;;;1999.90;999.90;;;-0.70;99.90;;;;;;5030025;28;20477;-66
2022/12/18 11:38:11;;;;;;;1999.90;999.90;;;-0.60;99.90;;;;;;5027695;28;20498;-67
2022/12/18 11:40:41;;;;;;;1999.90;999.90;;;-0.50;99.90;;;;;;5022748;28;20459;-65
2022/12/18 11:43:11;;;;;;;1999.90;999.90;;;-0.40;99.90;;;;;;5029318;28;20466;-65
2022/12/18 11:45:43;;;;;;;1999.90;999.90;;;-0.30;99.90;;;;;;5022416;28;20455;-65
2022/12/18 11:48:17;;;;;;;1999.90;999.90;;;-0.20;99.90;;;;;;5026818;28;20869;-67
2022/12/18 11:50:50;;;;;;;1999.90;999.90;;;0.10;99.90;;;;;;5027605;28;20478;-67
2022/12/18 11:53:19;;;;;;;1999.90;999.90;;;0.20;99.90;;;;;;5028699;28;20459;-64
2022/12/18 11:56:00;;;;;;;1999.90;999.90;;;0.20;99.90;;;;;;5029736;28;20479;-64
2022/12/18 11:58:46;;;;;;;1999.90;999.90;;;0.00;99.90;;;;;;5029486;28;20483;-64
2022/12/18 12:01:22;;;;;;;1999.90;999.90;;;0.00;99.90;;;;;;5027347;28;20834;-68
2022/12/18 12:04:26;;;;;;;1999.90;999.90;;;0.10;99.90;;;;;;5028189;28;20467;-67
2022/12/18 12:07:03;;;;;;;1999.90;999.90;;;-0.10;99.90;;;;;;5018936;28;20471;-64
2022/12/18 12:09:38;;;;;;;1999.90;999.90;;;-0.20;99.90;;;;;;5028789;28;20466;-64
2022/12/18 12:12:21;;;;;;;1999.90;999.90;;;-0.20;99.90;;;;;;5027422;28;20447;-65
2022/12/18 12:14:55;;;;;;;1999.90;999.90;;;-0.30;99.90;;;;;;5025834;28;20459;-65
2022/12/18 12:17:33;;;;;;;1999.90;999.90;;;-0.30;99.90;;;;;;5028445;28;20495;-63